createdAt,value
2022-08-05T00:00:26.121Z,100335.94
2022-08-05T00:02:57.294Z,100330.38
2022-08-05T00:06:04.737Z,100332.38
2022-08-05T00:08:34.148Z,100332.38
2022-08-05T00:11:20.255Z,100332.78
2022-08-05T00:13:53.343Z,100327.00
2022-08-05T00:16:36.139Z,100338.31
2022-08-05T00:19:08.169Z,100329.66
2022-08-05T00:21:45.364Z,100339.06
2022-08-05T00:24:19.031Z,100338.47
2022-08-05T00:26:54.325Z,100338.88
2022-08-05T00:29:25.792Z,100341.28
2022-08-05T00:32:12.596Z,100344.34
2022-08-05T00:35:05.245Z,100333.63
2022-08-05T00:37:53.567Z,100324.94
2022-08-05T00:40:28.154Z,100342.38
2022-08-05T00:43:00.050Z,100334.22
2022-08-05T00:45:38.931Z,100330.81
2022-08-05T00:48:16.429Z,100338.97
2022-08-05T00:50:50.087Z,100326.06
2022-08-05T00:54:01.084Z,100331.22
2022-08-05T00:56:12.642Z,100332.28
2022-08-05T00:58:46.900Z,100328.19
2022-08-05T01:01:48.059Z,100348.06
2022-08-05T01:04:20.250Z,100335.06
2022-08-05T01:06:58.066Z,100329.81
2022-08-05T01:09:30.511Z,100322.97
2022-08-05T01:12:04.906Z,100330.66
2022-08-05T01:14:54.077Z,100333.19
2022-08-05T01:17:31.649Z,100323.66
2022-08-05T01:20:22.407Z,100328.66
2022-08-05T01:23:15.295Z,100340.25
2022-08-05T01:26:28.788Z,100323.91
2022-08-05T01:29:04.302Z,100344.88
2022-08-05T01:31:42.639Z,100327.53
2022-08-05T01:34:19.001Z,100335.00
2022-08-05T01:37:01.127Z,100335.22
2022-08-05T01:39:46.666Z,100329.63
2022-08-05T01:42:21.467Z,100328.09
2022-08-05T01:44:59.143Z,100332.03
2022-08-05T01:47:39.758Z,100329.34
2022-08-05T01:50:16.174Z,100332.28
2022-08-05T01:52:50.259Z,100335.44
2022-08-05T01:55:24.597Z,100336.94
2022-08-05T01:58:12.555Z,100337.59
2022-08-05T02:00:50.779Z,100326.22
2022-08-05T02:03:28.900Z,100337.19
2022-08-05T02:06:03.406Z,100324.69
2022-08-05T02:08:54.909Z,100319.06
2022-08-05T02:11:34.094Z,100332.53
2022-08-05T02:14:12.321Z,100325.94
2022-08-05T02:16:53.123Z,100322.38
2022-08-05T02:19:34.236Z,100328.50
2022-08-05T02:22:25.821Z,100334.00
2022-08-05T02:25:04.168Z,100340.66
2022-08-05T02:27:59.725Z,100356.63
2022-08-05T02:30:37.088Z,100356.03
2022-08-05T02:33:11.907Z,100357.34
2022-08-05T02:35:56.231Z,100354.53
2022-08-05T02:38:35.087Z,100347.88
2022-08-05T02:41:17.115Z,100315.94
2022-08-05T02:47:01.333Z,100288.19
2022-08-05T02:49:40.633Z,100398.28
2022-08-05T02:52:29.966Z,100257.63
2022-08-05T02:55:05.584Z,100288.66
2022-08-05T02:58:11.320Z,100280.06
2022-08-05T03:00:33.012Z,100297.66
2022-08-05T03:03:10.195Z,100299.38
2022-08-05T03:06:57.086Z,100289.06
2022-08-05T03:08:34.675Z,100299.75
2022-08-05T03:11:57.059Z,100333.53
2022-08-05T03:14:03.158Z,100333.53
2022-08-05T03:16:33.910Z,100416.34
2022-08-05T03:19:17.270Z,100337.06
2022-08-05T03:21:59.223Z,100390.66
2022-08-05T03:24:30.855Z,100336.16
2022-08-05T03:27:19.406Z,100388.00
2022-08-05T03:30:07.779Z,100390.34
2022-08-05T03:32:47.588Z,100394.34
2022-08-05T03:35:33.761Z,100401.25
2022-08-05T03:38:33.334Z,100397.16
2022-08-05T03:41:24.751Z,100406.53
2022-08-05T03:44:08.634Z,100406.91
2022-08-05T03:46:44.809Z,100287.78
2022-08-05T03:49:16.978Z,100416.25
2022-08-05T03:52:36.557Z,100409.31
2022-08-05T03:55:50.444Z,100310.41
2022-08-05T03:57:50.276Z,100365.34
2022-08-05T04:00:26.445Z,100424.81
2022-08-05T04:02:59.432Z,100426.81
2022-08-05T04:05:34.482Z,100430.91
2022-08-05T04:08:14.593Z,100376.06
2022-08-05T04:11:00.994Z,100382.38
2022-08-05T04:13:49.692Z,100429.53
2022-08-05T04:16:24.338Z,100444.78
2022-08-05T04:18:57.959Z,100394.22
2022-08-05T04:28:11.440Z,100433.66
2022-08-05T04:34:18.874Z,100432.03
2022-08-05T04:37:04.449Z,100427.63
2022-08-05T04:39:55.817Z,100423.47
2022-08-05T04:42:43.709Z,100421.38
2022-08-05T04:45:23.089Z,100423.81
2022-08-05T04:48:18.690Z,100464.88
2022-08-05T04:51:02.593Z,100343.00
2022-08-05T04:53:35.502Z,100396.19
2022-08-05T04:56:33.408Z,100378.91
2022-08-05T04:58:58.090Z,100366.88
2022-08-05T05:02:35.356Z,100341.44
2022-08-05T05:04:26.297Z,100328.66
2022-08-05T05:06:59.935Z,100366.25
2022-08-05T05:09:30.922Z,100365.78
2022-08-05T05:12:04.050Z,100370.38
2022-08-05T05:14:36.407Z,100433.69
2022-08-05T05:17:09.546Z,100429.84
2022-08-05T05:19:44.353Z,100348.09
2022-08-05T05:22:35.609Z,100433.97
2022-08-05T05:28:20.212Z,100332.41
2022-08-05T05:30:50.571Z,100399.13
2022-08-05T05:33:23.487Z,100424.06
2022-08-05T05:35:53.026Z,100424.63
2022-08-05T05:38:26.993Z,100426.31
2022-08-05T05:40:57.449Z,100426.47
2022-08-05T05:43:56.873Z,100422.34
2022-08-05T05:46:19.080Z,100420.03
2022-08-05T05:48:53.088Z,100431.13
2022-08-05T05:51:22.812Z,100428.06
2022-08-05T05:53:58.969Z,100430.38
2022-08-05T05:56:34.945Z,100427.94
2022-08-05T05:59:06.703Z,100427.13
2022-08-05T06:01:39.423Z,100436.66
2022-08-05T06:04:13.248Z,100433.16
2022-08-05T06:06:47.393Z,100427.84
2022-08-05T06:09:25.820Z,100430.38
2022-08-05T06:12:06.336Z,100439.09
2022-08-05T06:14:40.260Z,100439.44
2022-08-05T06:17:21.898Z,100424.81
2022-08-05T06:19:56.649Z,100435.72
2022-08-05T06:22:33.707Z,100430.63
2022-08-05T06:25:24.360Z,100430.97
2022-08-05T06:28:11.728Z,100434.03
2022-08-05T06:30:42.919Z,100437.41
2022-08-05T06:33:12.361Z,100429.28
2022-08-05T06:36:07.449Z,100434.38
2022-08-05T06:38:39.451Z,100443.94
2022-08-05T06:41:16.436Z,100433.97
2022-08-05T06:43:59.116Z,100442.13
2022-08-05T06:46:31.460Z,100434.75
2022-08-05T06:49:01.894Z,100440.16
2022-08-05T06:51:36.877Z,100436.97
2022-08-05T06:54:10.129Z,100442.91
2022-08-05T06:56:54.693Z,100444.63
2022-08-05T06:59:24.446Z,100443.66
2022-08-05T07:01:53.586Z,100441.09
2022-08-05T07:04:22.801Z,100440.16
2022-08-05T07:06:54.078Z,100444.22
2022-08-05T07:09:24.950Z,100442.78
2022-08-05T07:11:55.383Z,100448.56
2022-08-05T07:14:42.708Z,100448.41
2022-08-05T07:18:00.459Z,100445.63
2022-08-05T07:20:32.827Z,100444.19
2022-08-05T07:22:54.261Z,100444.50
2022-08-05T07:25:56.213Z,100446.22
2022-08-05T07:28:17.443Z,100450.00
2022-08-05T07:30:50.340Z,100445.09
2022-08-05T07:33:37.168Z,100443.44
2022-08-05T07:36:20.892Z,100437.47
2022-08-05T07:38:54.732Z,100441.72
2022-08-05T07:42:13.897Z,100438.31
2022-08-05T07:44:19.489Z,100435.56
2022-08-05T07:46:50.244Z,100436.41
2022-08-05T07:49:20.404Z,100432.44
2022-08-05T07:51:54.424Z,100424.84
2022-08-05T07:54:31.598Z,100424.41
2022-08-05T07:57:18.131Z,100424.41
2022-08-05T07:59:53.883Z,100418.13
2022-08-05T08:02:31.248Z,100422.47
2022-08-05T08:05:17.523Z,100411.66
2022-08-05T08:07:59.535Z,100410.56
2022-08-05T08:10:33.393Z,100411.19
2022-08-05T08:13:03.865Z,100423.28
2022-08-05T08:16:33.454Z,100407.56
2022-08-05T08:18:23.571Z,100414.81
2022-08-05T08:21:03.232Z,100421.81
2022-08-05T08:24:01.409Z,100418.19
2022-08-05T08:26:26.716Z,100421.16
2022-08-05T08:29:21.979Z,100418.97
2022-08-05T08:31:52.686Z,100422.88
2022-08-05T08:34:30.735Z,100403.66
2022-08-05T08:37:05.742Z,100392.13
2022-08-05T08:39:37.526Z,100418.41
2022-08-05T08:42:33.706Z,100427.16
2022-08-05T08:45:22.542Z,100413.81
2022-08-05T08:48:12.695Z,100418.41
2022-08-05T08:51:22.060Z,100420.41
2022-08-05T08:53:44.334Z,100413.84
2022-08-05T08:56:14.539Z,100408.28
2022-08-05T08:58:47.905Z,100409.88
2022-08-05T09:01:19.140Z,100407.88
2022-08-05T09:03:55.712Z,100406.75
2022-08-05T09:06:29.818Z,100403.72
2022-08-05T09:09:01.462Z,100412.41
2022-08-05T09:11:53.485Z,100400.06
2022-08-05T09:14:57.764Z,100396.75
2022-08-05T09:17:42.303Z,100386.81
2022-08-05T09:20:05.307Z,100381.97
2022-08-05T09:23:09.251Z,100385.72
2022-08-05T09:26:02.156Z,100393.00
2022-08-05T09:28:32.381Z,100389.34
2022-08-05T09:31:22.252Z,100390.44
2022-08-05T09:33:58.241Z,100377.09
2022-08-05T09:36:55.158Z,100373.78
2022-08-05T09:39:41.249Z,100373.25
2022-08-05T09:42:23.408Z,100367.78
2022-08-05T09:45:17.676Z,100371.09
2022-08-05T09:47:55.813Z,100358.97
2022-08-05T09:50:37.955Z,100365.56
2022-08-05T09:53:22.901Z,100350.34
2022-08-05T09:56:12.630Z,100354.44
2022-08-05T09:58:42.848Z,100355.28
2022-08-05T10:01:31.623Z,100369.09
2022-08-05T10:04:09.973Z,100363.41
2022-08-05T10:06:41.078Z,100363.59
2022-08-05T10:09:28.262Z,100364.91
2022-08-05T10:12:18.455Z,100352.22
2022-08-05T10:15:20.607Z,100341.50
2022-08-05T10:18:07.050Z,100349.53
2022-08-05T10:20:43.162Z,100354.88
2022-08-05T10:23:34.442Z,100346.59
2022-08-05T10:26:07.502Z,100349.72
2022-08-05T10:28:45.134Z,100349.75
2022-08-05T10:32:54.429Z,100350.72
2022-08-05T10:34:07.150Z,100357.31
2022-08-05T10:36:41.376Z,100352.94
2022-08-05T10:39:24.999Z,100350.41
2022-08-05T10:42:14.647Z,100356.47
2022-08-05T10:44:48.007Z,100342.94
2022-08-05T10:47:26.864Z,100352.69
2022-08-05T10:50:32.397Z,100350.94
2022-08-05T10:53:02.892Z,100340.81
2022-08-05T10:56:03.785Z,100339.25
2022-08-05T10:58:23.077Z,100341.34
2022-08-05T11:01:12.861Z,100344.91
2022-08-05T11:04:02.925Z,100337.00
2022-08-05T11:06:32.696Z,100336.19
2022-08-05T11:09:31.864Z,100337.50
2022-08-05T11:12:45.313Z,100335.81
2022-08-05T11:16:00.235Z,100329.41
2022-08-05T11:18:26.074Z,100322.75
2022-08-05T11:20:56.343Z,100326.16
2022-08-05T11:24:05.286Z,100326.47
2022-08-05T11:26:28.771Z,100322.41
2022-08-05T11:29:06.946Z,100324.59
2022-08-05T11:31:54.333Z,100324.63
2022-08-05T11:34:51.709Z,100326.06
2022-08-05T11:38:29.106Z,100299.91
2022-08-05T11:41:34.701Z,100321.38
2022-08-05T11:44:05.094Z,100321.75
2022-08-05T11:47:09.996Z,100307.34
2022-08-05T11:49:34.323Z,100314.66
2022-08-05T11:52:08.668Z,100302.72
2022-08-05T11:54:41.691Z,100305.75
2022-08-05T11:57:25.301Z,100308.59
2022-08-05T11:59:57.677Z,100307.88
2022-08-05T12:02:31.987Z,100305.63
2022-08-05T12:05:07.888Z,100316.88
2022-08-05T12:08:07.421Z,100299.31
2022-08-05T12:10:45.339Z,100314.69
2022-08-05T12:13:28.187Z,100319.47
2022-08-05T12:16:14.999Z,100299.03
2022-08-05T12:18:52.787Z,100298.19
2022-08-05T12:21:26.983Z,100320.69
2022-08-05T12:24:07.309Z,100321.44
2022-08-05T12:26:39.123Z,100314.13
2022-08-05T12:29:15.970Z,100319.81
2022-08-05T12:31:54.213Z,100302.63
2022-08-05T12:34:27.787Z,100305.66
2022-08-05T12:37:10.117Z,100311.38
2022-08-05T12:39:40.335Z,100307.03
2022-08-05T12:42:15.286Z,100299.94
2022-08-05T12:44:47.535Z,100305.28
2022-08-05T12:47:30.608Z,100295.25
2022-08-05T12:58:38.872Z,100300.75
2022-08-05T13:02:02.289Z,100299.78
2022-08-05T13:03:20.064Z,100292.56
2022-08-05T13:05:52.307Z,100289.75
2022-08-05T13:08:21.573Z,100298.66
2022-08-05T13:11:04.104Z,100288.06
2022-08-05T13:14:05.668Z,100295.09
2022-08-05T13:16:29.803Z,100290.75
2022-08-05T13:18:59.434Z,100284.97
2022-08-05T13:21:37.582Z,100292.44
2022-08-05T13:24:09.001Z,100286.38
2022-08-05T13:26:38.721Z,100292.28
2022-08-05T13:29:12.378Z,100277.66
2022-08-05T13:32:03.826Z,100282.91
2022-08-05T13:34:35.902Z,100280.78
2022-08-05T13:37:07.491Z,100279.16
2022-08-05T13:40:13.897Z,100263.06
2022-08-05T13:42:29.959Z,100263.06
2022-08-05T13:45:02.342Z,100278.06
2022-08-05T13:47:35.961Z,100279.28
2022-08-05T13:50:23.490Z,100269.53
2022-08-05T13:52:53.814Z,100267.13
2022-08-05T13:55:40.791Z,100257.72
2022-08-05T13:58:11.998Z,100264.59
2022-08-05T14:00:43.107Z,100267.66
2022-08-05T14:03:17.241Z,100254.19
2022-08-05T14:06:08.250Z,100252.81
2022-08-05T14:08:34.356Z,100252.41
2022-08-05T14:11:21.079Z,100253.53
2022-08-05T14:13:55.042Z,100251.09
2022-08-05T14:16:30.497Z,100245.22
2022-08-05T14:19:04.379Z,100247.75
2022-08-05T14:22:09.337Z,100244.25
2022-08-05T14:24:23.365Z,100245.06
2022-08-05T14:27:15.533Z,100242.84
2022-08-05T14:29:41.851Z,100243.91
2022-08-05T14:32:15.034Z,100246.78
2022-08-05T14:34:46.542Z,100221.78
2022-08-05T14:37:19.004Z,100244.16
2022-08-05T14:39:50.283Z,100235.19
2022-08-05T14:42:26.299Z,100238.56
2022-08-05T14:44:56.726Z,100239.13
2022-08-05T14:48:02.768Z,100233.66
2022-08-05T14:50:19.048Z,100228.69
2022-08-05T14:52:57.722Z,100240.25
2022-08-05T14:55:39.377Z,100210.38
2022-08-05T14:58:13.707Z,100234.56
2022-08-05T15:00:59.717Z,100228.94
2022-08-05T15:03:39.074Z,100239.72
2022-08-05T15:06:15.391Z,100230.75
2022-08-05T15:08:59.489Z,100230.72
2022-08-05T15:11:52.973Z,100233.59
2022-08-05T15:14:34.546Z,100239.03
2022-08-05T15:17:09.865Z,100234.44
2022-08-05T15:20:00.195Z,100241.31
2022-08-05T15:22:29.675Z,100240.78
2022-08-05T15:24:59.469Z,100240.13
2022-08-05T15:27:32.043Z,100235.69
2022-08-05T15:30:07.161Z,100249.72
2022-08-05T15:32:36.005Z,100239.41
2022-08-05T15:35:10.535Z,100239.66
2022-08-05T15:38:08.547Z,100241.34
2022-08-05T15:41:02.401Z,100234.06
2022-08-05T15:43:21.291Z,100236.53
2022-08-05T15:46:00.584Z,100226.84
2022-08-05T15:48:31.389Z,100237.75
2022-08-05T15:51:05.572Z,100239.66
2022-08-05T15:53:38.515Z,100227.09
2022-08-05T15:56:20.733Z,100234.13
2022-08-05T15:58:50.226Z,100232.94
2022-08-05T16:01:20.035Z,100237.66
2022-08-05T16:03:50.800Z,100239.56
2022-08-05T16:06:23.003Z,100244.72
2022-08-05T16:08:53.781Z,100235.72
2022-08-05T16:11:40.117Z,100240.66
2022-08-05T16:14:17.140Z,100242.94
2022-08-05T16:16:47.799Z,100247.72
2022-08-05T16:19:25.499Z,100251.56
2022-08-05T16:22:10.702Z,100252.84
2022-08-05T16:24:52.190Z,100253.94
2022-08-05T16:27:32.224Z,100257.00
2022-08-05T16:30:26.442Z,100237.91
2022-08-05T16:32:58.137Z,100271.44
2022-08-05T16:35:32.100Z,100255.81
2022-08-05T16:38:15.644Z,100264.47
2022-08-05T16:40:59.673Z,100265.47
2022-08-05T16:43:32.899Z,100259.53
2022-08-05T16:46:23.596Z,100273.41
2022-08-05T16:48:52.781Z,100272.63
2022-08-05T16:51:22.197Z,100260.69
2022-08-05T16:54:05.864Z,100270.09
2022-08-05T16:56:41.751Z,100278.47
2022-08-05T16:59:14.700Z,100264.56
2022-08-05T17:01:52.815Z,100279.38
2022-08-05T17:04:26.431Z,100278.44
2022-08-05T17:07:00.464Z,100288.03
2022-08-05T17:09:57.412Z,100287.53
2022-08-05T17:12:51.353Z,100287.75
2022-08-05T17:15:15.506Z,100287.22
2022-08-05T17:17:55.168Z,100290.31
2022-08-05T17:20:31.743Z,100290.63
2022-08-05T17:23:01.003Z,100291.59
2022-08-05T17:25:40.355Z,100291.50
2022-08-05T17:28:11.014Z,100282.88
2022-08-05T17:30:51.704Z,100282.69
2022-08-05T17:33:22.200Z,100290.44
2022-08-05T17:36:07.717Z,100287.22
2022-08-05T17:38:40.080Z,100281.59
2022-08-05T17:42:16.839Z,100285.03
2022-08-05T17:44:02.834Z,100294.47
2022-08-05T17:46:33.583Z,100286.28
2022-08-05T17:49:03.103Z,100292.84
2022-08-05T17:51:40.086Z,100288.91
2022-08-05T17:54:10.012Z,100296.03
2022-08-05T17:56:41.264Z,100289.63
2022-08-05T17:59:14.853Z,100294.03
2022-08-05T18:01:50.655Z,100301.69
2022-08-05T18:04:21.480Z,100289.91
2022-08-05T18:07:00.275Z,100302.28
2022-08-05T18:09:59.739Z,100298.38
2022-08-05T18:12:24.698Z,100304.59
2022-08-05T18:14:54.311Z,100301.81
2022-08-05T18:17:59.644Z,100309.66
2022-08-05T18:20:15.346Z,100301.38
2022-08-05T18:22:54.153Z,100309.22
2022-08-05T18:25:25.104Z,100300.19
2022-08-05T18:27:57.461Z,100303.00
2022-08-05T18:30:28.570Z,100302.25
2022-08-05T18:33:01.057Z,100316.06
2022-08-05T18:36:00.937Z,100317.31
2022-08-05T18:38:26.065Z,100319.94
2022-08-05T18:41:53.397Z,100322.88
2022-08-05T18:43:48.700Z,100323.22
2022-08-05T18:46:19.765Z,100318.13
2022-08-05T18:48:52.267Z,100323.44
2022-08-05T18:52:04.445Z,100315.06
2022-08-05T18:54:24.785Z,100314.47
2022-08-05T18:56:57.208Z,100317.41
2022-08-05T18:59:43.129Z,100311.56
2022-08-05T19:02:26.615Z,100306.66
2022-08-05T19:05:02.228Z,100311.00
2022-08-05T19:07:49.868Z,100306.75
2022-08-05T19:10:26.433Z,100309.09
2022-08-05T19:12:58.277Z,100305.34
2022-08-05T19:15:58.714Z,100308.19
2022-08-05T19:18:21.966Z,100313.66
2022-08-05T19:20:55.522Z,100315.66
2022-08-05T19:24:07.342Z,100312.16
2022-08-05T19:26:16.062Z,100316.31
2022-08-05T19:28:45.706Z,100309.59
2022-08-05T19:31:19.494Z,100323.69
2022-08-05T19:33:56.014Z,100316.25
2022-08-05T19:36:29.543Z,100327.63
2022-08-05T19:39:01.845Z,100323.06
2022-08-05T19:41:57.995Z,100313.16
2022-08-05T19:44:22.459Z,100324.28
2022-08-05T19:46:55.261Z,100308.16
2022-08-05T19:49:27.329Z,100325.34
2022-08-05T19:52:08.546Z,100326.66
2022-08-05T19:54:48.396Z,100328.72
2022-08-05T19:57:18.656Z,100324.75
2022-08-05T20:00:09.461Z,100319.22
2022-08-05T20:02:43.579Z,100326.41
2022-08-05T20:05:16.641Z,100324.22
2022-08-05T20:07:57.799Z,100322.72
2022-08-05T20:10:28.628Z,100305.97
2022-08-05T20:12:58.116Z,100317.97
2022-08-05T20:15:52.439Z,100300.41
2022-08-05T20:18:32.808Z,100317.56
2022-08-05T20:21:02.578Z,100317.00
2022-08-05T20:23:39.357Z,100314.38
2022-08-05T20:26:18.814Z,100315.25
2022-08-05T20:28:50.074Z,100317.88
2022-08-05T20:31:21.764Z,100310.06
2022-08-05T20:33:55.049Z,100314.13
2022-08-05T20:36:25.973Z,100304.50
2022-08-05T20:38:57.978Z,100304.69
2022-08-05T20:41:44.639Z,100326.00
2022-08-05T20:44:28.999Z,100298.66
2022-08-05T20:47:00.297Z,100312.53
2022-08-05T20:49:37.789Z,100313.56
2022-08-05T20:52:09.017Z,100300.47
2022-08-05T20:54:43.188Z,100300.13
2022-08-05T20:57:43.230Z,100305.41
2022-08-05T21:00:35.015Z,100310.84
2022-08-05T21:03:08.038Z,100299.28
2022-08-05T21:05:53.771Z,100315.22
2022-08-05T21:08:26.883Z,100304.25
2022-08-05T21:11:10.331Z,100310.53
2022-08-05T21:13:47.745Z,100303.72
2022-08-05T21:16:29.358Z,100300.16
2022-08-05T21:19:01.432Z,100295.38
2022-08-05T21:21:39.053Z,100303.72
2022-08-05T21:24:13.543Z,100265.03
2022-08-05T21:26:57.873Z,100291.47
2022-08-05T21:29:31.335Z,100287.06
2022-08-05T21:32:04.672Z,100286.34
2022-08-05T21:34:35.586Z,100292.56
2022-08-05T21:37:07.727Z,100293.69
2022-08-05T21:39:40.375Z,100299.81
2022-08-05T21:42:41.179Z,100289.25
2022-08-05T21:44:59.620Z,100287.78
2022-08-05T21:47:56.897Z,100283.75
2022-08-05T21:50:19.162Z,100291.97
2022-08-05T21:52:53.808Z,100296.59
2022-08-05T21:55:42.801Z,100286.41
2022-08-05T21:58:20.406Z,100286.84
2022-08-05T22:00:58.501Z,100302.84
2022-08-05T22:03:52.405Z,100302.06
2022-08-05T22:06:22.553Z,100298.13
2022-08-05T22:08:54.806Z,100303.16
2022-08-05T22:11:34.505Z,100308.09
2022-08-05T22:14:33.746Z,100290.06
2022-08-05T22:16:57.928Z,100291.41
2022-08-05T22:20:03.149Z,100304.00
2022-08-05T22:22:20.212Z,100297.19
2022-08-05T22:25:20.955Z,100303.47
2022-08-05T22:28:11.379Z,100304.34
2022-08-05T22:30:56.109Z,100295.81
2022-08-05T22:33:57.254Z,100298.09
2022-08-05T22:36:16.073Z,100291.03
2022-08-05T22:38:47.917Z,100305.13
2022-08-05T22:42:05.143Z,100308.03
2022-08-05T22:44:12.075Z,100301.38
2022-08-05T22:46:41.987Z,100303.16
2022-08-05T22:50:18.525Z,100304.16
2022-08-05T22:52:12.535Z,100302.69
2022-08-05T22:54:52.232Z,100298.66
2022-08-05T22:57:24.576Z,100315.41
2022-08-05T22:59:55.764Z,100309.38
2022-08-05T23:02:29.450Z,100314.72
2022-08-05T23:05:02.139Z,100293.38
2022-08-05T23:07:44.814Z,100307.88
2022-08-05T23:10:14.435Z,100301.53
2022-08-05T23:12:45.873Z,100317.00
2022-08-05T23:15:15.510Z,100310.28
2022-08-05T23:18:00.466Z,100308.81
2022-08-05T23:20:33.134Z,100303.56
2022-08-05T23:23:08.332Z,100303.75
2022-08-05T23:25:51.955Z,100309.75
2022-08-05T23:28:28.986Z,100303.06
2022-08-05T23:31:15.678Z,100289.66
2022-08-05T23:34:04.254Z,100308.50
2022-08-05T23:36:39.538Z,100307.88
2022-08-05T23:39:17.445Z,100307.34
2022-08-05T23:42:03.370Z,100295.81
2022-08-05T23:44:34.716Z,100316.94
2022-08-05T23:47:15.214Z,100318.34
2022-08-05T23:49:45.917Z,100309.19
2022-08-05T23:52:28.649Z,100260.53
2022-08-05T23:55:00.039Z,100316.25
2022-08-05T23:57:30.378Z,100315.41
